createdAt,value
2022-09-15T00:01:07.000Z,0
2022-09-15T00:02:23.000Z,0
2022-09-15T00:03:39.000Z,0
2022-09-15T00:04:55.000Z,0
2022-09-15T00:06:11.000Z,0
2022-09-15T00:07:26.000Z,0
2022-09-15T00:08:43.000Z,0
2022-09-15T00:09:59.000Z,0
2022-09-15T00:11:15.000Z,0
2022-09-15T00:12:31.000Z,0
2022-09-15T00:13:47.000Z,0
2022-09-15T00:15:04.000Z,0
2022-09-15T00:16:20.000Z,0
2022-09-15T00:17:36.000Z,0
2022-09-15T00:18:52.000Z,0
2022-09-15T00:20:08.000Z,0
2022-09-15T00:21:25.000Z,0
2022-09-15T00:22:41.000Z,0
2022-09-15T00:23:56.000Z,0
2022-09-15T00:25:12.000Z,0
2022-09-15T00:26:28.000Z,0
2022-09-15T00:27:44.000Z,0
2022-09-15T00:29:01.000Z,0
2022-09-15T00:30:17.000Z,0
2022-09-15T00:31:32.000Z,0
2022-09-15T00:32:48.000Z,0
2022-09-15T00:34:04.000Z,0
2022-09-15T00:35:21.000Z,0
2022-09-15T00:36:37.000Z,0
2022-09-15T00:37:53.000Z,0
2022-09-15T00:39:09.000Z,0
2022-09-15T00:40:25.000Z,0
2022-09-15T00:41:42.000Z,0
2022-09-15T00:42:58.000Z,0
2022-09-15T00:44:14.000Z,0
2022-09-15T00:45:30.000Z,0
2022-09-15T00:46:46.000Z,0
2022-09-15T00:48:02.000Z,0
2022-09-15T00:49:18.000Z,0
2022-09-15T00:50:34.000Z,0
2022-09-15T00:51:50.000Z,0
2022-09-15T00:53:06.000Z,0
2022-09-15T00:54:22.000Z,0
2022-09-15T00:55:39.000Z,0
2022-09-15T00:56:55.000Z,0
2022-09-15T00:58:11.000Z,0
2022-09-15T00:59:27.000Z,0
2022-09-15T01:00:43.000Z,0
2022-09-15T01:02:00.000Z,0
2022-09-15T01:03:16.000Z,0
2022-09-15T01:04:31.000Z,0
2022-09-15T01:05:47.000Z,0
2022-09-15T01:07:03.000Z,0
2022-09-15T01:08:20.000Z,0
2022-09-15T01:09:36.000Z,0
2022-09-15T01:10:52.000Z,0
2022-09-15T01:12:08.000Z,0
2022-09-15T01:13:24.000Z,0
2022-09-15T01:14:40.000Z,0
2022-09-15T01:15:57.000Z,0
2022-09-15T01:17:13.000Z,0
2022-09-15T01:18:29.000Z,0
2022-09-15T01:19:45.000Z,0
2022-09-15T01:21:00.000Z,0
2022-09-15T01:22:17.000Z,0
2022-09-15T01:23:33.000Z,0
2022-09-15T01:24:49.000Z,0
2022-09-15T01:26:05.000Z,0
2022-09-15T01:27:21.000Z,0
2022-09-15T01:28:38.000Z,0
2022-09-15T01:29:54.000Z,0
2022-09-15T01:31:10.000Z,0
2022-09-15T01:32:26.000Z,0
2022-09-15T01:33:42.000Z,0
2022-09-15T01:34:58.000Z,0
2022-09-15T01:36:15.000Z,0
2022-09-15T01:37:30.000Z,0
2022-09-15T01:38:46.000Z,0
2022-09-15T01:40:02.000Z,0
2022-09-15T01:41:18.000Z,0
2022-09-15T01:42:35.000Z,0
2022-09-15T01:43:51.000Z,0
2022-09-15T01:45:07.000Z,0
2022-09-15T01:46:23.000Z,0
2022-09-15T01:47:39.000Z,0
2022-09-15T01:48:56.000Z,0
2022-09-15T01:50:12.000Z,0
2022-09-15T01:51:28.000Z,0
2022-09-15T01:52:44.000Z,0
2022-09-15T01:53:59.000Z,0
2022-09-15T01:55:15.000Z,0
2022-09-15T01:56:32.000Z,0
2022-09-15T01:57:48.000Z,0
2022-09-15T01:59:04.000Z,0
2022-09-15T02:00:20.000Z,0
2022-09-15T02:01:36.000Z,0
2022-09-15T02:02:53.000Z,0
2022-09-15T02:04:09.000Z,0
2022-09-15T02:05:25.000Z,0
2022-09-15T02:06:41.000Z,0
2022-09-15T02:07:57.000Z,0
2022-09-15T02:09:14.000Z,0
2022-09-15T02:10:30.000Z,0
2022-09-15T02:11:45.000Z,0
2022-09-15T02:13:01.000Z,0
2022-09-15T02:14:17.000Z,0
2022-09-15T02:15:34.000Z,0
2022-09-15T02:16:50.000Z,0
2022-09-15T02:18:06.000Z,0
2022-09-15T02:19:22.000Z,0
2022-09-15T02:20:38.000Z,0
2022-09-15T02:21:54.000Z,0
2022-09-15T02:23:11.000Z,0
2022-09-15T02:24:27.000Z,0
2022-09-15T02:25:43.000Z,0
2022-09-15T02:26:59.000Z,0
2022-09-15T02:28:14.000Z,0
2022-09-15T02:29:31.000Z,0
2022-09-15T02:30:47.000Z,0
2022-09-15T02:32:03.000Z,0
2022-09-15T02:33:19.000Z,0
2022-09-15T02:34:35.000Z,0
2022-09-15T02:35:52.000Z,0
2022-09-15T02:37:08.000Z,0
2022-09-15T02:38:24.000Z,0
2022-09-15T02:39:40.000Z,0
2022-09-15T02:40:56.000Z,0
2022-09-15T02:42:12.000Z,0
2022-09-15T02:43:29.000Z,0
2022-09-15T02:44:44.000Z,0
2022-09-15T02:46:00.000Z,0
2022-09-15T02:47:16.000Z,0
2022-09-15T02:48:32.000Z,0
2022-09-15T02:49:49.000Z,0
2022-09-15T02:51:05.000Z,0
2022-09-15T02:52:21.000Z,0
2022-09-15T02:53:37.000Z,0
2022-09-15T02:54:53.000Z,0
2022-09-15T02:56:10.000Z,0
2022-09-15T02:57:26.000Z,0
2022-09-15T02:58:42.000Z,0
2022-09-15T02:59:58.000Z,0
2022-09-15T03:01:13.000Z,0
2022-09-15T03:02:29.000Z,0
2022-09-15T03:03:46.000Z,0
2022-09-15T03:05:02.000Z,0
2022-09-15T03:06:18.000Z,0
2022-09-15T03:07:34.000Z,0
2022-09-15T03:08:50.000Z,0
2022-09-15T03:10:07.000Z,0
2022-09-15T03:11:23.000Z,0
2022-09-15T03:12:39.000Z,0
2022-09-15T03:13:55.000Z,0
2022-09-15T03:15:11.000Z,0
2022-09-15T03:16:28.000Z,0
2022-09-15T03:17:43.000Z,0
2022-09-15T03:18:59.000Z,0
2022-09-15T03:20:15.000Z,0
2022-09-15T03:21:31.000Z,0
2022-09-15T03:22:48.000Z,0
2022-09-15T03:24:04.000Z,0
2022-09-15T03:25:20.000Z,0
2022-09-15T03:26:36.000Z,0
2022-09-15T03:27:52.000Z,0
2022-09-15T03:29:08.000Z,0
2022-09-15T03:30:25.000Z,0
2022-09-15T03:31:41.000Z,0
2022-09-15T03:32:57.000Z,0
2022-09-15T03:34:12.000Z,0
2022-09-15T03:35:28.000Z,0
2022-09-15T03:36:45.000Z,0
2022-09-15T03:38:01.000Z,0
2022-09-15T03:39:17.000Z,0
2022-09-15T03:40:33.000Z,0
2022-09-15T03:41:49.000Z,0
2022-09-15T03:43:06.000Z,0
2022-09-15T03:44:22.000Z,0
2022-09-15T03:45:38.000Z,0
2022-09-15T03:46:54.000Z,0
2022-09-15T03:48:10.000Z,0
2022-09-15T03:49:26.000Z,0
2022-09-15T03:50:42.000Z,0
2022-09-15T03:51:58.000Z,0
2022-09-15T03:53:14.000Z,0
2022-09-15T03:54:30.000Z,0
2022-09-15T03:55:46.000Z,0
2022-09-15T03:57:03.000Z,0
2022-09-15T03:58:19.000Z,0
2022-09-15T03:59:35.000Z,0
2022-09-15T04:00:51.000Z,0
2022-09-15T04:02:07.000Z,0
2022-09-15T04:03:24.000Z,0
2022-09-15T04:04:40.000Z,0
2022-09-15T04:05:56.000Z,0
2022-09-15T04:07:11.000Z,0
2022-09-15T04:08:27.000Z,0
2022-09-15T04:09:43.000Z,0
2022-09-15T04:11:00.000Z,0
2022-09-15T04:12:16.000Z,0
2022-09-15T04:13:32.000Z,0
2022-09-15T04:14:48.000Z,0
2022-09-15T04:16:04.000Z,0
2022-09-15T04:17:21.000Z,0
2022-09-15T04:18:37.000Z,0
2022-09-15T04:19:53.000Z,0
2022-09-15T04:21:09.000Z,0
2022-09-15T04:22:25.000Z,0
2022-09-15T04:23:41.000Z,0
2022-09-15T04:24:57.000Z,0
2022-09-15T04:26:13.000Z,0
2022-09-15T04:27:29.000Z,0
2022-09-15T04:28:45.000Z,0
2022-09-15T04:30:02.226Z,0
2022-09-15T04:31:18.000Z,0
2022-09-15T04:32:34.000Z,4
2022-09-15T04:33:50.000Z,4
2022-09-15T04:35:06.000Z,4
2022-09-15T04:36:22.000Z,4
2022-09-15T04:37:39.000Z,4
2022-09-15T04:38:55.000Z,4
2022-09-15T04:40:11.000Z,8
2022-09-15T04:41:26.942Z,8
2022-09-15T04:42:42.000Z,12
2022-09-15T04:43:59.000Z,8
2022-09-15T04:45:15.000Z,12
2022-09-15T04:46:30.000Z,20
2022-09-15T04:47:46.000Z,20
2022-09-15T04:49:02.000Z,24
2022-09-15T04:50:19.000Z,24
2022-09-15T04:51:35.000Z,32
2022-09-15T04:52:51.000Z,36
2022-09-15T04:54:07.000Z,44
2022-09-15T04:55:23.000Z,48
2022-09-15T04:56:39.000Z,60
2022-09-15T04:57:56.000Z,64
2022-09-15T04:59:12.000Z,64
2022-09-15T05:00:28.000Z,68
2022-09-15T05:01:44.000Z,72
2022-09-15T05:02:59.000Z,80
2022-09-15T05:04:16.000Z,96
2022-09-15T05:05:32.000Z,124
2022-09-15T05:06:48.000Z,140
2022-09-15T05:08:04.000Z,164
2022-09-15T05:09:20.000Z,192
2022-09-15T05:10:37.000Z,228
2022-09-15T05:11:53.000Z,284
2022-09-15T05:13:09.000Z,320
2022-09-15T05:14:25.000Z,352
2022-09-15T05:15:41.000Z,356
2022-09-15T05:16:57.000Z,380
2022-09-15T05:18:14.000Z,424
2022-09-15T05:19:29.000Z,432
2022-09-15T05:20:45.000Z,392
2022-09-15T05:22:01.000Z,408
2022-09-15T05:23:17.000Z,468
2022-09-15T05:24:34.000Z,528
2022-09-15T05:25:50.000Z,568
2022-09-15T05:27:06.000Z,560
2022-09-15T05:28:22.000Z,508
2022-09-15T05:29:38.000Z,560
2022-09-15T05:30:55.000Z,664
2022-09-15T05:32:11.000Z,732
2022-09-15T05:33:27.000Z,892
2022-09-15T05:34:43.000Z,1088
2022-09-15T05:35:59.057Z,1160
2022-09-15T05:37:15.000Z,1156
2022-09-15T05:38:31.000Z,1196
2022-09-15T05:39:47.000Z,1332
2022-09-15T05:41:03.000Z,1440
2022-09-15T05:42:19.000Z,1596
2022-09-15T05:43:35.000Z,1676
2022-09-15T05:44:52.000Z,1592
2022-09-15T05:46:08.000Z,1616
2022-09-15T05:47:24.000Z,1652
2022-09-15T05:48:40.000Z,1472
2022-09-15T05:49:56.000Z,1428
2022-09-15T05:51:13.000Z,1444
2022-09-15T05:52:28.000Z,1532
2022-09-15T05:53:44.000Z,1628
2022-09-15T05:55:00.000Z,1660
2022-09-15T05:56:16.000Z,1656
2022-09-15T05:57:33.000Z,1704
2022-09-15T05:58:49.000Z,1824
2022-09-15T06:00:05.000Z,1964
2022-09-15T06:01:21.000Z,1968
2022-09-15T06:02:37.000Z,2236
2022-09-15T06:03:53.000Z,2488
2022-09-15T06:05:10.000Z,2024
2022-09-15T06:06:26.000Z,1856
2022-09-15T06:07:42.000Z,1836
2022-09-15T06:08:57.000Z,1836
2022-09-15T06:10:13.000Z,1880
2022-09-15T06:11:30.000Z,2008
2022-09-15T06:12:46.000Z,2176
2022-09-15T06:14:02.000Z,2488
2022-09-15T06:15:18.000Z,2776
2022-09-15T06:16:34.000Z,3120
2022-09-15T06:17:51.000Z,3404
2022-09-15T06:19:07.000Z,3204
2022-09-15T06:20:23.000Z,3236
2022-09-15T06:21:39.000Z,3144
2022-09-15T06:22:55.000Z,3300
2022-09-15T06:24:11.000Z,3612
2022-09-15T06:25:27.000Z,3868
2022-09-15T06:26:43.000Z,4112
2022-09-15T06:27:59.000Z,4032
2022-09-15T06:29:15.000Z,4260
2022-09-15T06:30:31.000Z,4456
2022-09-15T06:31:48.000Z,4644
2022-09-15T06:33:04.000Z,4572
2022-09-15T06:34:20.000Z,4512
2022-09-15T06:35:36.000Z,4212
2022-09-15T06:36:52.000Z,3520
2022-09-15T06:38:09.000Z,3076
2022-09-15T06:39:25.000Z,2736
2022-09-15T06:40:41.000Z,2548
2022-09-15T06:41:56.000Z,2576
2022-09-15T06:43:12.000Z,2564
2022-09-15T06:44:29.000Z,2588
2022-09-15T06:45:45.000Z,2676
2022-09-15T06:47:01.000Z,2920
2022-09-15T06:48:17.000Z,3200
2022-09-15T06:49:33.000Z,3456
2022-09-15T06:50:49.000Z,3312
2022-09-15T06:52:06.000Z,3200
2022-09-15T06:53:22.000Z,3192
2022-09-15T06:54:38.000Z,3336
2022-09-15T06:55:54.000Z,3224
2022-09-15T06:57:10.000Z,3352
2022-09-15T06:58:26.000Z,3380
2022-09-15T06:59:42.000Z,3940
2022-09-15T07:00:58.000Z,4468
2022-09-15T07:02:14.000Z,5140
2022-09-15T07:03:30.000Z,5576
2022-09-15T07:04:47.000Z,5832
2022-09-15T07:06:03.000Z,6168
2022-09-15T07:07:19.000Z,6204
2022-09-15T07:08:35.000Z,6180
2022-09-15T07:09:51.000Z,6296
2022-09-15T07:11:07.000Z,6540
2022-09-15T07:12:24.000Z,6220
2022-09-15T07:13:40.000Z,5392
2022-09-15T07:14:55.000Z,4784
2022-09-15T07:16:11.000Z,4724
2022-09-15T07:17:27.000Z,4792
2022-09-15T07:18:44.000Z,5524
2022-09-15T07:20:00.000Z,6104
2022-09-15T07:21:16.000Z,5852
2022-09-15T07:22:32.000Z,6188
2022-09-15T07:23:48.000Z,7088
2022-09-15T07:25:05.000Z,7212
2022-09-15T07:26:21.000Z,7084
2022-09-15T07:27:37.000Z,8216
2022-09-15T07:28:53.000Z,8760
2022-09-15T07:30:09.000Z,8236
2022-09-15T07:31:24.000Z,7672
2022-09-15T07:32:41.000Z,8088
2022-09-15T07:33:57.000Z,8488
2022-09-15T07:35:13.000Z,8760
2022-09-15T07:36:29.000Z,9012
2022-09-15T07:37:45.000Z,9172
2022-09-15T07:39:02.000Z,9780
2022-09-15T07:40:18.000Z,10272
2022-09-15T07:41:34.000Z,10400
2022-09-15T07:42:50.000Z,10404
2022-09-15T07:44:06.000Z,10152
2022-09-15T07:45:23.000Z,9856
2022-09-15T07:46:39.000Z,9452
2022-09-15T07:47:54.000Z,9084
2022-09-15T07:49:10.000Z,9244
2022-09-15T07:50:26.000Z,10264
2022-09-15T07:51:42.000Z,10868
2022-09-15T07:52:59.000Z,11644
2022-09-15T07:54:15.000Z,11732
2022-09-15T07:55:31.000Z,11896
2022-09-15T07:56:47.000Z,12656
2022-09-15T07:58:03.000Z,12224
2022-09-15T07:59:20.000Z,12352
2022-09-15T08:00:36.000Z,13468
2022-09-15T08:01:52.000Z,14332
2022-09-15T08:03:08.000Z,13760
2022-09-15T08:04:23.000Z,13164
2022-09-15T08:05:40.000Z,12908
2022-09-15T08:06:56.000Z,13444
2022-09-15T08:08:12.000Z,14348
2022-09-15T08:09:28.000Z,13988
2022-09-15T08:10:44.000Z,13496
2022-09-15T08:12:01.000Z,13300
2022-09-15T08:13:17.000Z,14432
2022-09-15T08:14:33.000Z,15392
2022-09-15T08:15:49.000Z,15788
2022-09-15T08:17:05.000Z,15940
2022-09-15T08:18:21.000Z,15012
2022-09-15T08:19:38.000Z,13520
2022-09-15T08:20:53.000Z,11900
2022-09-15T08:22:09.000Z,11048
2022-09-15T08:23:25.000Z,9720
2022-09-15T08:24:41.000Z,9228
2022-09-15T08:25:58.000Z,9944
2022-09-15T08:27:14.000Z,9848
2022-09-15T08:28:30.000Z,10012
2022-09-15T08:29:46.000Z,9524
2022-09-15T08:31:02.000Z,9336
2022-09-15T08:32:19.000Z,10672
2022-09-15T08:33:35.000Z,13460
2022-09-15T08:34:51.000Z,14172
2022-09-15T08:36:07.000Z,13924
2022-09-15T08:37:22.000Z,14424
2022-09-15T08:38:38.000Z,13392
2022-09-15T08:39:55.000Z,12208
2022-09-15T08:41:11.000Z,12644
2022-09-15T08:42:27.000Z,13904
2022-09-15T08:43:43.000Z,16596
2022-09-15T08:44:59.000Z,17440
2022-09-15T08:46:16.000Z,17440
2022-09-15T08:47:32.000Z,17408
2022-09-15T08:48:48.000Z,17344
2022-09-15T08:50:04.000Z,18048
2022-09-15T08:51:20.000Z,18688
2022-09-15T08:52:37.000Z,18816
2022-09-15T08:53:52.000Z,19936
2022-09-15T08:55:08.000Z,19744
2022-09-15T08:56:24.000Z,18528
2022-09-15T08:57:40.000Z,16960
2022-09-15T08:58:56.000Z,16652
2022-09-15T09:00:13.000Z,15516
2022-09-15T09:01:28.000Z,15108
2022-09-15T09:02:44.000Z,15136
2022-09-15T09:04:00.000Z,16136
2022-09-15T09:05:16.000Z,15704
2022-09-15T09:06:33.000Z,14256
2022-09-15T09:07:49.000Z,13112
2022-09-15T09:09:05.000Z,12048
2022-09-15T09:10:21.000Z,11328
2022-09-15T09:11:37.000Z,10628
2022-09-15T09:12:54.000Z,11088
2022-09-15T09:14:10.000Z,11992
2022-09-15T09:15:26.000Z,12672
2022-09-15T09:16:42.000Z,14384
2022-09-15T09:17:57.000Z,15496
2022-09-15T09:19:14.000Z,16136
2022-09-15T09:20:30.000Z,16464
2022-09-15T09:21:46.000Z,15892
2022-09-15T09:23:02.000Z,14816
2022-09-15T09:24:18.000Z,13676
2022-09-15T09:25:34.000Z,13552
2022-09-15T09:26:51.000Z,13016
2022-09-15T09:28:07.000Z,12468
2022-09-15T09:29:23.000Z,12316
2022-09-15T09:30:39.000Z,12628
2022-09-15T09:31:55.000Z,13220
2022-09-15T09:33:12.000Z,13372
2022-09-15T09:34:27.000Z,13796
2022-09-15T09:35:43.000Z,15348
2022-09-15T09:36:59.000Z,19072
2022-09-15T09:38:15.000Z,18208
2022-09-15T09:39:32.000Z,17824
2022-09-15T09:40:48.000Z,18080
2022-09-15T09:42:04.000Z,18944
2022-09-15T09:43:20.000Z,20608
2022-09-15T09:44:36.000Z,22272
2022-09-15T09:45:53.000Z,23168
2022-09-15T09:47:09.000Z,23232
2022-09-15T09:48:25.000Z,23776
2022-09-15T09:49:41.000Z,23840
2022-09-15T09:50:56.000Z,22304
2022-09-15T09:52:12.000Z,19808
2022-09-15T09:53:29.000Z,18080
2022-09-15T09:54:45.000Z,16024
2022-09-15T09:56:01.000Z,13416
2022-09-15T09:57:17.000Z,10772
2022-09-15T09:58:33.000Z,7840
2022-09-15T09:59:50.000Z,6724
2022-09-15T10:01:06.000Z,5560
2022-09-15T10:02:22.000Z,4896
2022-09-15T10:03:38.000Z,5708
2022-09-15T10:04:54.000Z,6644
2022-09-15T10:06:11.000Z,6980
2022-09-15T10:07:26.000Z,10172
2022-09-15T10:08:42.000Z,12692
2022-09-15T10:09:58.000Z,16752
2022-09-15T10:11:14.000Z,19520
2022-09-15T10:12:31.000Z,19360
2022-09-15T10:13:47.000Z,22016
2022-09-15T10:15:03.000Z,23264
2022-09-15T10:16:19.000Z,18144
2022-09-15T10:17:35.000Z,26784
2022-09-15T10:18:51.000Z,23136
2022-09-15T10:20:08.000Z,20096
2022-09-15T10:21:24.000Z,22816
2022-09-15T10:22:40.000Z,18560
2022-09-15T10:23:56.000Z,18624
2022-09-15T10:25:11.000Z,19840
2022-09-15T10:26:28.000Z,19680
2022-09-15T10:27:44.000Z,21696
2022-09-15T10:29:00.000Z,16676
2022-09-15T10:30:16.000Z,25088
2022-09-15T10:31:32.000Z,15672
2022-09-15T10:32:49.000Z,15740
2022-09-15T10:34:05.000Z,15908
2022-09-15T10:35:21.000Z,16520
2022-09-15T10:36:37.000Z,17248
2022-09-15T10:37:53.000Z,17664
2022-09-15T10:39:09.000Z,19008
2022-09-15T10:40:26.000Z,24224
2022-09-15T10:41:41.000Z,35136
2022-09-15T10:42:57.000Z,25888
2022-09-15T10:44:13.000Z,22816
2022-09-15T10:45:29.000Z,21472
2022-09-15T10:46:46.000Z,28352
2022-09-15T10:48:02.000Z,25120
2022-09-15T10:49:18.000Z,28288
2022-09-15T10:50:34.000Z,46976
2022-09-15T10:51:50.000Z,27968
2022-09-15T10:53:07.000Z,29920
2022-09-15T10:54:23.000Z,28480
2022-09-15T10:55:39.000Z,24800
2022-09-15T10:56:55.000Z,23648
2022-09-15T10:58:10.000Z,22336
2022-09-15T10:59:27.000Z,19808
2022-09-15T11:00:43.000Z,20032
2022-09-15T11:01:59.000Z,19136
2022-09-15T11:03:15.000Z,19680
2022-09-15T11:04:31.000Z,20896
2022-09-15T11:05:47.000Z,21408
2022-09-15T11:07:04.000Z,28640
2022-09-15T11:08:20.000Z,16560
2022-09-15T11:09:36.000Z,15356
2022-09-15T11:10:52.000Z,16788
2022-09-15T11:12:08.000Z,21760
2022-09-15T11:13:25.000Z,48288
2022-09-15T11:14:40.000Z,32704
2022-09-15T11:15:56.000Z,52288
2022-09-15T11:17:12.000Z,23200
2022-09-15T11:18:28.000Z,24896
2022-09-15T11:19:45.000Z,22976
2022-09-15T11:21:01.000Z,24512
2022-09-15T11:22:17.000Z,23264
2022-09-15T11:23:33.000Z,21696
2022-09-15T11:24:49.000Z,19264
2022-09-15T11:26:05.000Z,15476
2022-09-15T11:27:22.000Z,12516
2022-09-15T11:28:38.000Z,10824
2022-09-15T11:29:54.000Z,9244
2022-09-15T11:31:09.000Z,7884
2022-09-15T11:32:25.000Z,6664
2022-09-15T11:33:42.000Z,5532
2022-09-15T11:34:58.000Z,4984
2022-09-15T11:36:14.000Z,4460
2022-09-15T11:37:30.000Z,4032
2022-09-15T11:38:46.000Z,3452
2022-09-15T11:40:03.000Z,3024
2022-09-15T11:41:19.000Z,2796
2022-09-15T11:42:35.000Z,2852
2022-09-15T11:43:51.000Z,3632
2022-09-15T11:45:07.000Z,4800
2022-09-15T11:46:24.000Z,4444
2022-09-15T11:47:39.000Z,4244
2022-09-15T11:48:55.000Z,5192
2022-09-15T11:50:11.000Z,6348
2022-09-15T11:51:27.000Z,6776
2022-09-15T11:52:43.000Z,5672
2022-09-15T11:54:00.000Z,5384
2022-09-15T11:55:16.000Z,6236
2022-09-15T11:56:32.000Z,7016
2022-09-15T11:57:48.000Z,7864
2022-09-15T11:59:04.000Z,9124
2022-09-15T12:00:21.000Z,10292
2022-09-15T12:01:37.000Z,11456
2022-09-15T12:02:53.000Z,12156
2022-09-15T12:04:08.000Z,13144
2022-09-15T12:05:24.000Z,13612
2022-09-15T12:06:41.000Z,14944
2022-09-15T12:07:57.000Z,17184
2022-09-15T12:09:13.000Z,20384
2022-09-15T12:10:29.000Z,22528
2022-09-15T12:11:45.000Z,22176
2022-09-15T12:13:02.000Z,27488
2022-09-15T12:14:18.000Z,18784
2022-09-15T12:15:34.000Z,16396
2022-09-15T12:16:50.000Z,15508
2022-09-15T12:18:06.000Z,14788
2022-09-15T12:19:22.000Z,14260
2022-09-15T12:20:38.000Z,13628
2022-09-15T12:21:54.000Z,12996
2022-09-15T12:23:10.000Z,11776
2022-09-15T12:24:26.000Z,11560
2022-09-15T12:25:42.000Z,11572
2022-09-15T12:26:59.000Z,11960
2022-09-15T12:28:15.000Z,11956
2022-09-15T12:29:31.000Z,11872
2022-09-15T12:30:47.000Z,12412
2022-09-15T12:32:03.000Z,13300
2022-09-15T12:33:20.000Z,13404
2022-09-15T12:34:36.000Z,13476
2022-09-15T12:35:52.000Z,13640
2022-09-15T12:37:07.000Z,13884
2022-09-15T12:38:23.000Z,14252
2022-09-15T12:39:40.000Z,18624
2022-09-15T12:40:56.000Z,14656
2022-09-15T12:42:12.000Z,14268
2022-09-15T12:43:28.000Z,18208
2022-09-15T12:44:44.000Z,16040
2022-09-15T12:46:00.000Z,28896
2022-09-15T12:47:17.000Z,70144
2022-09-15T12:48:33.000Z,70944
2022-09-15T12:49:49.000Z,36832
2022-09-15T12:51:05.000Z,32256
2022-09-15T12:52:21.000Z,31872
2022-09-15T12:53:37.000Z,26880
2022-09-15T12:54:53.000Z,26400
2022-09-15T12:56:09.000Z,24864
2022-09-15T12:57:25.000Z,23616
2022-09-15T12:58:41.000Z,57216
2022-09-15T12:59:58.000Z,21536
2022-09-15T13:01:14.000Z,20608
2022-09-15T13:02:30.000Z,19072
2022-09-15T13:03:46.000Z,19680
2022-09-15T13:05:02.000Z,17568
2022-09-15T13:06:18.000Z,17088
2022-09-15T13:07:35.000Z,18208
2022-09-15T13:08:51.000Z,20064
2022-09-15T13:10:06.000Z,30048
2022-09-15T13:11:22.000Z,22432
2022-09-15T13:12:38.000Z,41664
2022-09-15T13:13:55.000Z,44640
2022-09-15T13:15:11.000Z,36032
2022-09-15T13:16:26.000Z,20416
2022-09-15T13:17:42.000Z,18208
2022-09-15T13:18:58.000Z,31712
2022-09-15T13:20:15.000Z,18720
2022-09-15T13:21:31.000Z,11668
2022-09-15T13:22:47.000Z,10812
2022-09-15T13:24:03.000Z,10680
2022-09-15T13:25:19.000Z,10620
2022-09-15T13:26:36.000Z,10516
2022-09-15T13:27:52.000Z,9196
2022-09-15T13:29:08.000Z,8904
2022-09-15T13:30:24.000Z,8488
2022-09-15T13:31:40.000Z,7544
2022-09-15T13:32:56.000Z,6480
2022-09-15T13:34:12.000Z,5784
2022-09-15T13:35:28.000Z,5384
2022-09-15T13:36:44.000Z,5060
2022-09-15T13:38:00.000Z,4956
2022-09-15T13:39:16.000Z,5012
2022-09-15T13:40:33.000Z,4808
2022-09-15T13:41:49.000Z,4792
2022-09-15T13:43:05.000Z,4860
2022-09-15T13:44:21.000Z,4860
2022-09-15T13:45:37.000Z,4840
2022-09-15T13:46:54.000Z,4636
2022-09-15T13:48:10.000Z,4828
2022-09-15T13:49:25.000Z,5492
2022-09-15T13:50:41.000Z,6008
2022-09-15T13:51:57.000Z,6576
2022-09-15T13:53:14.000Z,7288
2022-09-15T13:54:30.000Z,8804
2022-09-15T13:55:46.000Z,11148
2022-09-15T13:57:02.000Z,15148
2022-09-15T13:58:18.000Z,11432
2022-09-15T13:59:34.000Z,10188
2022-09-15T14:00:51.000Z,9824
2022-09-15T14:02:07.000Z,9164
2022-09-15T14:03:23.000Z,8468
2022-09-15T14:04:39.000Z,7652
2022-09-15T14:05:54.000Z,7000
2022-09-15T14:07:11.000Z,5944
2022-09-15T14:08:27.000Z,5416
2022-09-15T14:09:43.000Z,4672
2022-09-15T14:10:59.000Z,3824
2022-09-15T14:12:15.000Z,3556
2022-09-15T14:13:32.000Z,3236
2022-09-15T14:14:48.000Z,3136
2022-09-15T14:16:04.000Z,2904
2022-09-15T14:17:20.000Z,2584
2022-09-15T14:18:36.000Z,2452
2022-09-15T14:19:53.000Z,2340
2022-09-15T14:21:09.000Z,2360
2022-09-15T14:22:24.000Z,2196
2022-09-15T14:23:40.000Z,1844
2022-09-15T14:24:56.000Z,1488
2022-09-15T14:26:12.000Z,1604
2022-09-15T14:27:29.000Z,1788
2022-09-15T14:28:45.000Z,1772
2022-09-15T14:30:01.000Z,1520
2022-09-15T14:31:17.000Z,1560
2022-09-15T14:32:33.000Z,1676
2022-09-15T14:33:50.000Z,1912
2022-09-15T14:35:06.000Z,2732
2022-09-15T14:36:22.000Z,4088
2022-09-15T14:37:38.000Z,5180
2022-09-15T14:38:53.000Z,5692
2022-09-15T14:40:10.000Z,5676
2022-09-15T14:41:26.000Z,5888
2022-09-15T14:42:42.000Z,6060
2022-09-15T14:43:58.000Z,6492
2022-09-15T14:45:14.000Z,6896
2022-09-15T14:46:31.000Z,7352
2022-09-15T14:47:47.000Z,8056
2022-09-15T14:49:03.000Z,9168
2022-09-15T14:50:19.000Z,10436
2022-09-15T14:51:35.000Z,10744
2022-09-15T14:52:51.000Z,11228
2022-09-15T14:54:08.000Z,13196
2022-09-15T14:55:23.000Z,17632
2022-09-15T14:56:39.000Z,13436
2022-09-15T14:57:55.000Z,18080
2022-09-15T14:59:11.000Z,19936
2022-09-15T15:00:28.000Z,19648
2022-09-15T15:01:44.000Z,19424
2022-09-15T15:03:00.000Z,10044
2022-09-15T15:04:16.000Z,8820
2022-09-15T15:05:32.000Z,8928
2022-09-15T15:06:49.000Z,8720
2022-09-15T15:08:05.000Z,7788
2022-09-15T15:09:21.000Z,9972
2022-09-15T15:10:37.000Z,18560
2022-09-15T15:11:52.000Z,10976
2022-09-15T15:13:08.000Z,18912
2022-09-15T15:14:25.000Z,25024
2022-09-15T15:15:41.000Z,22080
2022-09-15T15:16:57.000Z,13880
2022-09-15T15:18:13.000Z,17856
2022-09-15T15:19:29.000Z,17760
2022-09-15T15:20:46.000Z,17216
2022-09-15T15:22:02.000Z,6040
2022-09-15T15:23:18.000Z,5704
2022-09-15T15:24:34.000Z,5684
2022-09-15T15:25:50.000Z,5816
2022-09-15T15:27:07.000Z,5792
2022-09-15T15:28:22.000Z,5156
2022-09-15T15:29:38.000Z,4908
2022-09-15T15:30:54.000Z,5252
2022-09-15T15:32:10.000Z,5544
2022-09-15T15:33:27.000Z,4928
2022-09-15T15:34:43.000Z,3600
2022-09-15T15:35:59.000Z,2668
2022-09-15T15:37:15.000Z,2412
2022-09-15T15:38:31.000Z,2588
2022-09-15T15:39:47.000Z,2896
2022-09-15T15:41:04.000Z,3228
2022-09-15T15:42:20.000Z,3504
2022-09-15T15:43:36.000Z,3664
2022-09-15T15:44:51.000Z,4512
2022-09-15T15:46:07.000Z,5276
2022-09-15T15:47:24.000Z,5392
2022-09-15T15:48:40.000Z,5900
2022-09-15T15:49:56.000Z,6644
2022-09-15T15:51:12.000Z,8280
2022-09-15T15:52:28.000Z,7516
2022-09-15T15:53:45.000Z,7924
2022-09-15T15:55:01.000Z,7636
2022-09-15T15:56:17.000Z,7680
2022-09-15T15:57:33.000Z,7908
2022-09-15T15:58:49.000Z,6864
2022-09-15T16:00:06.000Z,8540
2022-09-15T16:01:22.000Z,7268
2022-09-15T16:02:37.000Z,8600
2022-09-15T16:03:53.000Z,6440
2022-09-15T16:05:09.000Z,8640
2022-09-15T16:06:25.000Z,9100
2022-09-15T16:07:42.000Z,9252
2022-09-15T16:08:58.000Z,8864
2022-09-15T16:10:14.000Z,5820
2022-09-15T16:11:30.000Z,8672
2022-09-15T16:12:46.000Z,5764
2022-09-15T16:14:03.000Z,4868
2022-09-15T16:15:19.000Z,4876
2022-09-15T16:16:35.000Z,7112
2022-09-15T16:17:51.000Z,6992
2022-09-15T16:19:06.000Z,3652
2022-09-15T16:20:23.000Z,3680
2022-09-15T16:21:39.000Z,3764
2022-09-15T16:22:55.000Z,4436
2022-09-15T16:24:11.000Z,6408
2022-09-15T16:25:27.000Z,5840
2022-09-15T16:26:43.000Z,6068
2022-09-15T16:28:00.000Z,7132
2022-09-15T16:29:16.000Z,7984
2022-09-15T16:30:32.000Z,6260
2022-09-15T16:31:48.000Z,7096
2022-09-15T16:33:04.000Z,7728
2022-09-15T16:34:21.000Z,3812
2022-09-15T16:35:36.000Z,3768
2022-09-15T16:36:52.000Z,6936
2022-09-15T16:38:08.000Z,8124
2022-09-15T16:39:24.000Z,7816
2022-09-15T16:40:41.000Z,7340
2022-09-15T16:41:57.000Z,6928
2022-09-15T16:43:13.000Z,6812
2022-09-15T16:44:29.000Z,6640
2022-09-15T16:45:45.000Z,5540
2022-09-15T16:47:02.000Z,4296
2022-09-15T16:48:18.000Z,4056
2022-09-15T16:49:34.000Z,3932
2022-09-15T16:50:50.000Z,3732
2022-09-15T16:52:05.000Z,3500
2022-09-15T16:53:21.000Z,3296
2022-09-15T16:54:38.000Z,2592
2022-09-15T16:55:54.000Z,2940
2022-09-15T16:57:10.000Z,2424
2022-09-15T16:58:26.000Z,2244
2022-09-15T16:59:42.000Z,2064
2022-09-15T17:00:59.000Z,1884
2022-09-15T17:02:15.000Z,1768
2022-09-15T17:03:31.000Z,1648
2022-09-15T17:04:47.000Z,1664
2022-09-15T17:06:03.000Z,1420
2022-09-15T17:07:20.000Z,1228
2022-09-15T17:08:35.000Z,1208
2022-09-15T17:09:51.000Z,1100
2022-09-15T17:11:07.000Z,932
2022-09-15T17:12:23.000Z,828
2022-09-15T17:13:40.000Z,740